createdAt,value
2018-01-10T00:00:39.176Z,100072.69
2018-01-10T00:01:41.634Z,100072.12
2018-01-10T00:02:44.094Z,100075.84
2018-01-10T00:03:46.546Z,100068.16
2018-01-10T00:04:49.002Z,100070.91
2018-01-10T00:05:51.480Z,100063.80
2018-01-10T00:06:53.942Z,100071.22
2018-01-10T00:07:56.402Z,100068.81
2018-01-10T00:08:58.872Z,100069.95
2018-01-10T00:10:01.340Z,100072.13
2018-01-10T00:11:03.812Z,100067.94
2018-01-10T00:12:06.293Z,100066.34
2018-01-10T00:13:08.785Z,100067.88
2018-01-10T00:14:11.243Z,100064.73
2018-01-10T00:15:13.709Z,100066.50
2018-01-10T00:16:16.188Z,100059.80
2018-01-10T00:17:18.645Z,100062.14
2018-01-10T00:18:21.098Z,100062.89
2018-01-10T00:19:23.572Z,100055.20
2018-01-10T00:20:26.029Z,100063.63
2018-01-10T00:21:28.487Z,100062.25
2018-01-10T00:22:30.968Z,100061.02
2018-01-10T00:23:33.430Z,100069.03
2018-01-10T00:24:35.886Z,100060.55
2018-01-10T00:25:38.360Z,100063.47
2018-01-10T00:26:40.814Z,100064.84
2018-01-10T00:27:43.291Z,100059.75
2018-01-10T00:28:45.748Z,100061.53
2018-01-10T00:29:48.216Z,100061.76
2018-01-10T00:30:50.674Z,100057.63
2018-01-10T00:31:53.145Z,100060.38
2018-01-10T00:32:55.620Z,100062.73
2018-01-10T00:33:58.092Z,100062.73
2018-01-10T00:35:00.547Z,100057.00
2018-01-10T00:36:03.016Z,100054.98
2018-01-10T00:37:05.470Z,100056.50
2018-01-10T00:38:07.922Z,100058.05
2018-01-10T00:39:10.390Z,100057.81
2018-01-10T00:40:12.865Z,100051.91
2018-01-10T00:41:15.325Z,100051.28
2018-01-10T00:42:17.782Z,100055.00
2018-01-10T00:43:20.262Z,100050.08
2018-01-10T00:44:22.720Z,100053.97
2018-01-10T00:45:25.198Z,100052.36
2018-01-10T00:46:27.653Z,100048.00
2018-01-10T00:47:30.120Z,100055.84
2018-01-10T00:48:32.592Z,100054.24
2018-01-10T00:49:35.060Z,100051.48
2018-01-10T00:50:37.538Z,100053.03
2018-01-10T00:51:40.012Z,100051.43
2018-01-10T00:52:42.494Z,100048.28
2018-01-10T00:53:44.968Z,100050.22
2018-01-10T00:54:47.426Z,100047.01
2018-01-10T00:55:49.902Z,100050.56
2018-01-10T00:56:52.360Z,100049.69
2018-01-10T00:57:54.833Z,100043.36
2018-01-10T00:58:57.303Z,100046.28
2018-01-10T00:59:59.785Z,100043.70
2018-01-10T01:01:02.268Z,100044.27
2018-01-10T01:02:04.747Z,100050.34
2018-01-10T01:03:07.216Z,100044.44
2018-01-10T01:04:09.678Z,100046.38
2018-01-10T01:05:12.146Z,100045.98
2018-01-10T01:06:14.640Z,100047.36
2018-01-10T01:07:17.099Z,100041.45
2018-01-10T01:08:19.554Z,100040.48
2018-01-10T01:09:22.028Z,100043.80
2018-01-10T01:10:24.501Z,100041.80
2018-01-10T01:11:26.977Z,100042.03
2018-01-10T01:12:29.430Z,100041.80
2018-01-10T01:13:31.900Z,100043.73
2018-01-10T01:14:34.372Z,100039.22
2018-01-10T01:15:36.826Z,100042.94
2018-01-10T01:16:39.321Z,100045.45
2018-01-10T01:17:41.797Z,100041.73
2018-01-10T01:18:44.868Z,100039.55
2018-01-10T01:19:47.367Z,100042.88
2018-01-10T01:20:49.827Z,100046.02
2018-01-10T01:21:52.302Z,100044.65
2018-01-10T01:22:54.766Z,100042.64
2018-01-10T01:23:57.236Z,100041.27
2018-01-10T01:24:59.698Z,100042.80
2018-01-10T01:26:02.155Z,100042.23
2018-01-10T01:27:04.648Z,100045.55
2018-01-10T01:28:07.111Z,100038.45
2018-01-10T01:29:09.566Z,100043.95
2018-01-10T01:30:12.041Z,100043.14
2018-01-10T01:31:14.516Z,100042.34
2018-01-10T01:32:16.994Z,100043.31
2018-01-10T01:33:19.464Z,100039.77
2018-01-10T01:34:21.935Z,100040.50
2018-01-10T01:35:24.408Z,100040.91
2018-01-10T01:36:26.883Z,100044.86
2018-01-10T01:37:29.368Z,100040.73
2018-01-10T01:38:31.827Z,100048.01
2018-01-10T01:39:34.285Z,100048.41
2018-01-10T01:40:36.738Z,100034.27
2018-01-10T01:41:39.206Z,100047.61
2018-01-10T01:42:41.686Z,100048.58
2018-01-10T01:43:44.146Z,100044.45
2018-01-10T01:44:46.606Z,100052.30
2018-01-10T01:45:49.076Z,100046.41
2018-01-10T01:46:51.549Z,100051.09
2018-01-10T01:47:54.055Z,100047.52
2018-01-10T01:48:56.528Z,100055.92
2018-01-10T01:49:58.982Z,100055.13
2018-01-10T01:51:01.456Z,100052.95
2018-01-10T01:52:03.940Z,100055.86
2018-01-10T01:53:06.432Z,100052.31
2018-01-10T01:54:08.904Z,100056.44
2018-01-10T01:55:11.381Z,100048.36
2018-01-10T01:56:13.838Z,100050.53
2018-01-10T01:57:16.311Z,100055.80
2018-01-10T01:58:18.812Z,100051.27
2018-01-10T01:59:21.295Z,100051.04
2018-01-10T02:00:23.754Z,100049.27
2018-01-10T02:01:26.211Z,100055.33
2018-01-10T02:02:28.666Z,100053.55
2018-01-10T02:03:31.138Z,100049.37
2018-01-10T02:04:33.594Z,100051.31
2018-01-10T02:05:36.046Z,100045.01
2018-01-10T02:06:38.499Z,100051.48
2018-01-10T02:07:40.969Z,100053.83
2018-01-10T02:08:43.453Z,100048.09
2018-01-10T02:09:45.932Z,100050.44
2018-01-10T02:10:48.400Z,100048.27
2018-01-10T02:11:50.872Z,100050.78
2018-01-10T02:12:53.326Z,100045.68
2018-01-10T02:13:55.820Z,100059.02
2018-01-10T02:14:58.278Z,100049.17
2018-01-10T02:16:00.734Z,100052.62
2018-01-10T02:17:03.189Z,100055.78
2018-01-10T02:18:05.692Z,100052.22
2018-01-10T02:19:08.184Z,100051.82
2018-01-10T02:20:10.660Z,100048.84
2018-01-10T02:21:13.118Z,100053.94
2018-01-10T02:22:15.577Z,100051.35
2018-01-10T02:23:18.030Z,100059.59
2018-01-10T02:24:20.510Z,100055.47
2018-01-10T02:25:22.980Z,100055.88
2018-01-10T02:26:25.434Z,100055.23
2018-01-10T02:27:27.904Z,100052.26
2018-01-10T02:28:30.377Z,100048.70
2018-01-10T02:29:32.862Z,100053.16
2018-01-10T02:30:35.340Z,100046.46
2018-01-10T02:31:37.813Z,100052.53
2018-01-10T02:32:40.290Z,100053.83
2018-01-10T02:33:42.764Z,100059.50
2018-01-10T02:34:45.237Z,100050.62
2018-01-10T02:35:47.685Z,100057.09
2018-01-10T02:36:50.146Z,100055.48
2018-01-10T02:37:52.602Z,100051.66
2018-01-10T02:38:55.075Z,100049.48
2018-01-10T02:39:57.550Z,100053.77
2018-01-10T02:41:00.021Z,100052.40
2018-01-10T02:42:02.478Z,100043.92
2018-01-10T02:43:04.953Z,100049.98
2018-01-10T02:44:07.410Z,100045.30
2018-01-10T02:45:09.895Z,100048.61
2018-01-10T02:46:12.366Z,100046.43
2018-01-10T02:47:14.822Z,100047.23
2018-01-10T02:48:17.274Z,100044.48
2018-01-10T02:49:19.733Z,100044.48
2018-01-10T02:50:22.206Z,100046.03
2018-01-10T02:51:24.657Z,100048.38
2018-01-10T02:52:27.132Z,100047.57
2018-01-10T02:53:29.586Z,100047.17
2018-01-10T02:54:32.046Z,100040.47
2018-01-10T02:55:34.543Z,100047.91
2018-01-10T02:56:36.998Z,100043.55
2018-01-10T02:57:39.450Z,100047.03
2018-01-10T02:58:41.930Z,100048.58
2018-01-10T02:59:44.405Z,100044.79
2018-01-10T03:00:46.886Z,100048.34
2018-01-10T03:01:49.341Z,100045.77
2018-01-10T03:02:51.804Z,100042.84
2018-01-10T03:03:54.311Z,100046.56
2018-01-10T03:04:56.793Z,100041.88
2018-01-10T03:05:59.274Z,100050.52
2018-01-10T03:07:01.748Z,100043.65
2018-01-10T03:08:04.202Z,100040.50
2018-01-10T03:09:06.669Z,100043.25
2018-01-10T03:10:09.121Z,100032.59
2018-01-10T03:11:11.608Z,100041.80
2018-01-10T03:12:14.082Z,100036.88
2018-01-10T03:13:16.538Z,100036.48
2018-01-10T03:14:18.994Z,100040.03
2018-01-10T03:15:21.458Z,100040.03
2018-01-10T03:16:23.962Z,100030.42
2018-01-10T03:17:26.433Z,100038.42
2018-01-10T03:18:28.899Z,100027.03
2018-01-10T03:19:31.372Z,100029.95
2018-01-10T03:20:33.849Z,100030.52
2018-01-10T03:21:36.340Z,100028.34
2018-01-10T03:22:38.810Z,100028.47
2018-01-10T03:23:41.270Z,100032.59
2018-01-10T03:24:43.723Z,100022.34
2018-01-10T03:25:46.174Z,100023.72
2018-01-10T03:26:48.670Z,100020.73
2018-01-10T03:27:51.338Z,100025.42
2018-01-10T03:28:53.810Z,100025.59
2018-01-10T03:29:56.272Z,100018.09
2018-01-10T03:30:58.748Z,100017.28
2018-01-10T03:32:01.257Z,100017.05
2018-01-10T03:33:03.710Z,100018.59
2018-01-10T03:34:06.186Z,100024.66
2018-01-10T03:35:08.656Z,100021.11
2018-01-10T03:36:11.110Z,100021.27
2018-01-10T03:37:13.603Z,100024.59
2018-01-10T03:38:16.094Z,100018.69
2018-01-10T03:39:18.570Z,100020.23
2018-01-10T03:40:21.057Z,100018.99
2018-01-10T03:41:23.529Z,100019.73
2018-01-10T03:42:26.032Z,100027.56
2018-01-10T03:43:28.504Z,100018.52
2018-01-10T03:44:30.981Z,100024.02
2018-01-10T03:45:33.452Z,100021.84
2018-01-10T03:46:35.924Z,100021.98
2018-01-10T03:47:38.416Z,100018.02
2018-01-10T03:48:40.891Z,100026.27
2018-01-10T03:49:43.348Z,100017.63
2018-01-10T03:50:45.806Z,100017.78
2018-01-10T03:51:48.276Z,100021.50
2018-01-10T03:52:50.754Z,100007.94
2018-01-10T03:53:53.229Z,100014.97
2018-01-10T03:54:55.694Z,100018.69
2018-01-10T03:55:58.164Z,100017.89
2018-01-10T03:57:00.637Z,100016.91
2018-01-10T03:58:03.124Z,100015.95
2018-01-10T03:59:05.599Z,100017.72
2018-01-10T04:00:08.217Z,100019.09
2018-01-10T04:01:10.680Z,100017.31
2018-01-10T04:02:13.152Z,100019.33
2018-01-10T04:03:16.025Z,100018.76
2018-01-10T04:04:18.482Z,100016.02
2018-01-10T04:05:20.956Z,100020.53
2018-01-10T04:06:23.436Z,100018.19
2018-01-10T04:07:25.897Z,100012.94
2018-01-10T04:08:28.403Z,100016.25
2018-01-10T04:09:30.858Z,100011.16
2018-01-10T04:10:33.332Z,100011.96
2018-01-10T04:11:35.804Z,100015.95
2018-01-10T04:12:38.272Z,100010.45
2018-01-10T04:13:40.758Z,100014.57
2018-01-10T04:14:43.224Z,100016.08
2018-01-10T04:15:45.681Z,100015.11
2018-01-10T04:16:48.152Z,100017.05
2018-01-10T04:17:50.630Z,100015.52
2018-01-10T04:18:53.105Z,100015.68
2018-01-10T04:19:55.568Z,100012.12
2018-01-10T04:20:58.023Z,100014.30
2018-01-10T04:22:00.492Z,100011.16
2018-01-10T04:23:02.950Z,100012.53
2018-01-10T04:24:05.430Z,100008.01
2018-01-10T04:25:07.899Z,100010.92
2018-01-10T04:26:10.357Z,100011.33
2018-01-10T04:27:12.833Z,100007.20
2018-01-10T04:28:15.305Z,100011.73
2018-01-10T04:29:17.802Z,100005.27
2018-01-10T04:30:20.272Z,100002.52
2018-01-10T04:31:22.725Z,100007.61
2018-01-10T04:32:25.193Z,100008.98
2018-01-10T04:33:27.649Z,100011.33
2018-01-10T04:34:30.130Z,100007.77
2018-01-10T04:35:32.604Z,100015.20
2018-01-10T04:36:35.076Z,100006.33
2018-01-10T04:37:37.534Z,100002.78
2018-01-10T04:38:40.004Z,100008.67
2018-01-10T04:39:42.481Z,100006.27
2018-01-10T04:40:44.933Z,100000.94
2018-01-10T04:41:47.390Z,100004.09
2018-01-10T04:42:49.860Z,100001.91
2018-01-10T04:43:52.396Z,100002.08
2018-01-10T04:44:54.934Z,100001.67
2018-01-10T04:45:57.362Z,100004.82
2018-01-10T04:46:59.822Z,100009.11
2018-01-10T04:48:02.278Z,100003.22
2018-01-10T04:49:04.733Z,100003.78
2018-01-10T04:50:07.225Z,100002.01
2018-01-10T04:51:09.686Z,100000.23
2018-01-10T04:52:12.148Z,99999.83
2018-01-10T04:53:14.651Z,100004.52
2018-01-10T04:54:17.113Z,100000.00
2018-01-10T04:55:19.591Z,100003.31
2018-01-10T04:56:22.064Z,100003.48
2018-01-10T04:57:24.517Z,100003.08
2018-01-10T04:58:26.996Z,100001.47
2018-01-10T04:59:29.468Z,99994.20
2018-01-10T05:00:31.956Z,100001.64
2018-01-10T05:01:34.406Z,99997.69
2018-01-10T05:02:36.915Z,99999.59
2018-01-10T05:03:39.370Z,100001.53
2018-01-10T05:04:41.831Z,100002.11
2018-01-10T05:05:44.302Z,99997.98
2018-01-10T05:06:46.779Z,100000.50
2018-01-10T05:07:49.233Z,99996.95
2018-01-10T05:08:51.688Z,99994.61
2018-01-10T05:09:54.158Z,99994.77
2018-01-10T05:10:56.643Z,99995.74
2018-01-10T05:11:59.094Z,99998.25
2018-01-10T05:13:01.552Z,99994.70
2018-01-10T05:14:04.006Z,99999.22
2018-01-10T05:15:06.622Z,99997.05
2018-01-10T05:16:09.101Z,100002.94
2018-01-10T05:17:11.608Z,100004.48
2018-01-10T05:18:14.049Z,100003.51
2018-01-10T05:19:16.505Z,100000.92
2018-01-10T05:20:18.963Z,100002.47
2018-01-10T05:21:21.437Z,100003.84
2018-01-10T05:22:23.886Z,99999.31
2018-01-10T05:23:26.356Z,99999.89
2018-01-10T05:24:28.833Z,100002.23
2018-01-10T05:25:31.299Z,99998.98
2018-01-10T05:26:33.772Z,100008.83
2018-01-10T05:27:36.226Z,99998.81
2018-01-10T05:28:38.692Z,99996.81
2018-01-10T05:29:41.150Z,100003.67
2018-01-10T05:30:43.606Z,100000.92
2018-01-10T05:31:46.102Z,100001.33
2018-01-10T05:32:48.575Z,100000.52
2018-01-10T05:33:51.029Z,100004.64
2018-01-10T05:34:53.504Z,100001.09
2018-01-10T05:35:55.980Z,100002.47
2018-01-10T05:36:58.458Z,100010.70
2018-01-10T05:38:00.926Z,100004.64
2018-01-10T05:39:03.383Z,100001.50
2018-01-10T05:40:05.842Z,100003.44
2018-01-10T05:41:08.316Z,100004.24
2018-01-10T05:42:10.824Z,100002.87
2018-01-10T05:43:13.309Z,100002.47
2018-01-10T05:44:15.770Z,100001.27
2018-01-10T05:45:18.230Z,100002.80
2018-01-10T05:46:20.705Z,100004.58
2018-01-10T05:47:23.192Z,99996.34
2018-01-10T05:48:25.668Z,99997.55
2018-01-10T05:49:28.123Z,100000.69
2018-01-10T05:50:30.592Z,99995.37
2018-01-10T05:51:33.046Z,99998.52
2018-01-10T05:52:35.541Z,99999.08
2018-01-10T05:53:38.028Z,100003.60
2018-01-10T05:54:40.497Z,100000.86
2018-01-10T05:55:42.973Z,100002.63
2018-01-10T05:56:45.441Z,99998.11
2018-01-10T05:57:47.918Z,100003.20
2018-01-10T05:58:50.369Z,99998.68
2018-01-10T05:59:52.927Z,100002.23
2018-01-10T06:00:55.731Z,100004.41
2018-01-10T06:01:58.221Z,100002.40
2018-01-10T06:03:00.706Z,100007.32
2018-01-10T06:04:03.200Z,100002.00
2018-01-10T06:05:05.680Z,100001.36
2018-01-10T06:06:08.138Z,100002.33
2018-01-10T06:07:10.620Z,99998.78
2018-01-10T06:08:13.078Z,100004.51
2018-01-10T06:09:15.537Z,100000.86
2018-01-10T06:10:17.994Z,100006.72
2018-01-10T06:11:20.465Z,100006.80
2018-01-10T06:12:22.923Z,100008.98
2018-01-10T06:13:25.493Z,100000.30
2018-01-10T06:14:27.950Z,100001.49
2018-01-10T06:15:30.407Z,100002.28
2018-01-10T06:16:32.906Z,99999.97
2018-01-10T06:17:35.361Z,100000.61
2018-01-10T06:18:37.817Z,100012.88
2018-01-10T06:19:40.288Z,100005.58
2018-01-10T06:20:42.742Z,100003.76
2018-01-10T06:21:45.208Z,99998.44
2018-01-10T06:22:47.665Z,100004.34
2018-01-10T06:23:50.142Z,100001.22
2018-01-10T06:24:52.620Z,100002.94
2018-01-10T06:25:55.135Z,100000.03
2018-01-10T06:26:57.636Z,100005.13
2018-01-10T06:28:00.106Z,100001.95
2018-01-10T06:29:02.568Z,100009.31
2018-01-10T06:30:05.124Z,100000.77
2018-01-10T06:31:07.596Z,100003.86
2018-01-10T06:32:10.050Z,100003.41
2018-01-10T06:33:12.530Z,100006.50
2018-01-10T06:34:15.057Z,100000.30
2018-01-10T06:35:17.532Z,100009.08
2018-01-10T06:36:19.993Z,100004.49
2018-01-10T06:37:22.468Z,100008.62
2018-01-10T06:38:24.954Z,100008.52
2018-01-10T06:39:27.412Z,100009.81
2018-01-10T06:40:29.891Z,100005.13
2018-01-10T06:41:32.377Z,100007.03
2018-01-10T06:42:34.848Z,100012.02
2018-01-10T06:43:37.306Z,100007.61
2018-01-10T06:44:39.944Z,100012.48
2018-01-10T06:45:42.419Z,100015.02
2018-01-10T06:46:44.883Z,100010.73
2018-01-10T06:47:47.360Z,100013.78
2018-01-10T06:48:49.832Z,100012.92
2018-01-10T06:49:52.286Z,100013.15
2018-01-10T06:50:54.760Z,100016.62
2018-01-10T06:51:57.234Z,100017.77
2018-01-10T06:52:59.722Z,100016.92
2018-01-10T06:54:02.182Z,100018.52
2018-01-10T06:55:04.652Z,100021.81
2018-01-10T06:56:07.131Z,100020.66
2018-01-10T06:57:09.620Z,100013.26
2018-01-10T06:58:12.097Z,100019.52
2018-01-10T06:59:14.550Z,100024.50
2018-01-10T07:00:17.008Z,100022.60
2018-01-10T07:01:19.484Z,100022.55
2018-01-10T07:02:21.962Z,100025.32
2018-01-10T07:03:24.484Z,100020.84
2018-01-10T07:04:26.950Z,100021.28
2018-01-10T07:05:29.406Z,100012.25
2018-01-10T07:06:31.876Z,100015.67
2018-01-10T07:07:34.352Z,100019.50
2018-01-10T07:08:36.806Z,100017.26
2018-01-10T07:09:39.261Z,100015.59
2018-01-10T07:10:41.738Z,100020.76
2018-01-10T07:11:44.208Z,100010.44
2018-01-10T07:12:46.680Z,100019.19
2018-01-10T07:13:49.133Z,100020.27
2018-01-10T07:14:51.608Z,100020.61
2018-01-10T07:15:54.078Z,100018.36
2018-01-10T07:16:56.565Z,100019.24
2018-01-10T07:17:59.022Z,100017.80
2018-01-10T07:19:01.492Z,100019.28
2018-01-10T07:20:03.968Z,100021.39
2018-01-10T07:21:06.451Z,100028.20
2018-01-10T07:22:08.931Z,100022.63
2018-01-10T07:23:11.386Z,100022.73
2018-01-10T07:24:13.856Z,100020.33
2018-01-10T07:25:16.333Z,100023.24
2018-01-10T07:26:18.808Z,100023.14
2018-01-10T07:27:21.280Z,100026.63
2018-01-10T07:28:23.738Z,100031.25
2018-01-10T07:29:26.208Z,100026.09
2018-01-10T07:30:28.704Z,100021.50
2018-01-10T07:31:31.162Z,100025.16
2018-01-10T07:32:33.621Z,100035.27
2018-01-10T07:33:36.166Z,100033.97
2018-01-10T07:34:38.598Z,100034.88
2018-01-10T07:35:41.100Z,100038.36
2018-01-10T07:36:43.596Z,100035.31
2018-01-10T07:37:46.060Z,100030.72
2018-01-10T07:38:48.518Z,100033.80
2018-01-10T07:39:50.988Z,100032.33
2018-01-10T07:40:53.463Z,100035.00
2018-01-10T07:41:55.934Z,100033.13
2018-01-10T07:42:58.405Z,100031.92
2018-01-10T07:44:00.888Z,100035.41
2018-01-10T07:45:03.342Z,100038.65
2018-01-10T07:46:05.832Z,100035.27
2018-01-10T07:47:08.299Z,100032.85
2018-01-10T07:48:10.801Z,100036.34
2018-01-10T07:49:13.250Z,100038.04
2018-01-10T07:50:15.718Z,100043.86
2018-01-10T07:51:18.247Z,100042.16
2018-01-10T07:52:20.706Z,100046.84
2018-01-10T07:53:23.166Z,100043.05
2018-01-10T07:54:25.641Z,100048.88
2018-01-10T07:55:28.103Z,100051.39
2018-01-10T07:56:30.597Z,100051.16
2018-01-10T07:57:33.050Z,100051.89
2018-01-10T07:58:35.514Z,100050.28
2018-01-10T07:59:37.992Z,100051.41
2018-01-10T08:00:40.450Z,100055.30
2018-01-10T08:01:42.930Z,100058.20
2018-01-10T08:02:45.382Z,100057.56
2018-01-10T08:03:47.842Z,100054.98
2018-01-10T08:04:50.318Z,100059.27
2018-01-10T08:05:52.777Z,100059.97
2018-01-10T08:06:55.254Z,100054.65
2018-01-10T08:07:57.710Z,100062.48
2018-01-10T08:09:00.166Z,100062.81
2018-01-10T08:10:02.640Z,100063.38
2018-01-10T08:11:05.124Z,100058.05
2018-01-10T08:12:07.610Z,100059.02
2018-01-10T08:13:10.066Z,100065.41
2018-01-10T08:14:12.536Z,100063.23
2018-01-10T08:15:15.008Z,100064.94
2018-01-10T08:16:17.467Z,100067.84
2018-01-10T08:17:19.952Z,100068.58
2018-01-10T08:18:22.409Z,100073.83
2018-01-10T08:19:24.872Z,100066.73
2018-01-10T08:20:27.331Z,100070.21
2018-01-10T08:21:29.797Z,100069.54
2018-01-10T08:22:32.286Z,100074.63
2018-01-10T08:23:34.764Z,100065.92
2018-01-10T08:24:37.274Z,100072.54
2018-01-10T08:25:39.746Z,100071.73
2018-01-10T08:26:42.216Z,100069.32
2018-01-10T08:27:44.707Z,100065.53
2018-01-10T08:28:47.180Z,100068.04
2018-01-10T08:29:49.656Z,100065.06
2018-01-10T08:30:52.110Z,100069.50
2018-01-10T08:31:55.204Z,100078.55
2018-01-10T08:32:57.700Z,100065.95
2018-01-10T08:34:00.164Z,100064.75
2018-01-10T08:35:02.671Z,100069.83
2018-01-10T08:36:05.130Z,100066.45
2018-01-10T08:37:07.590Z,100066.45
2018-01-10T08:38:10.088Z,100069.76
2018-01-10T08:39:12.561Z,100067.02
2018-01-10T08:40:15.018Z,100070.15
2018-01-10T08:41:17.478Z,100068.48
2018-01-10T08:42:19.952Z,100067.27
2018-01-10T08:43:22.434Z,100075.63
2018-01-10T08:44:24.902Z,100081.44
2018-01-10T08:45:27.376Z,100071.77
2018-01-10T08:46:29.850Z,100078.78
2018-01-10T08:47:32.318Z,100071.98
2018-01-10T08:48:34.909Z,100076.39
2018-01-10T08:49:37.381Z,100077.27
2018-01-10T08:50:39.872Z,100072.77
2018-01-10T08:51:42.338Z,100080.98
2018-01-10T08:52:44.820Z,100077.11
2018-01-10T08:53:47.333Z,100074.77
2018-01-10T08:54:49.803Z,100076.70
2018-01-10T08:55:52.266Z,100079.20
2018-01-10T08:56:54.750Z,100076.34
2018-01-10T08:57:57.232Z,100084.23
2018-01-10T08:58:59.776Z,100082.53
2018-01-10T09:00:02.242Z,100086.11
2018-01-10T09:01:04.712Z,100082.23
2018-01-10T09:02:07.178Z,100081.27
2018-01-10T09:03:09.661Z,100085.00
2018-01-10T09:04:12.158Z,100080.64
2018-01-10T09:05:14.668Z,100084.75
2018-01-10T09:06:17.134Z,100082.16
2018-01-10T09:07:19.628Z,100081.94
2018-01-10T09:08:22.108Z,100085.16
2018-01-10T09:09:24.597Z,100083.70
2018-01-10T09:10:27.080Z,100078.30
2018-01-10T09:11:29.560Z,100079.34
2018-01-10T09:12:32.040Z,100080.26
2018-01-10T09:13:34.524Z,100076.38
2018-01-10T09:14:37.028Z,100085.69
2018-01-10T09:15:39.512Z,100082.22
2018-01-10T09:16:42.000Z,100084.39
2018-01-10T09:17:44.460Z,100076.80
2018-01-10T09:18:46.928Z,100081.72
2018-01-10T09:19:49.432Z,100077.84
2018-01-10T09:20:51.925Z,100082.20
2018-01-10T09:21:54.390Z,100082.20
2018-01-10T09:22:56.866Z,100077.92
2018-01-10T09:23:59.344Z,100084.22
2018-01-10T09:25:01.826Z,100085.02
2018-01-10T09:26:04.310Z,100085.83
2018-01-10T09:27:06.796Z,100078.97
2018-01-10T09:28:09.272Z,100083.73
2018-01-10T09:29:11.760Z,100085.34
2018-01-10T09:30:14.478Z,100083.56
2018-01-10T09:31:16.945Z,100083.16
2018-01-10T09:32:19.410Z,100081.63
2018-01-10T09:33:21.892Z,100082.19
2018-01-10T09:34:24.358Z,100077.91
2018-01-10T09:35:26.864Z,100076.78
2018-01-10T09:36:29.330Z,100083.64
2018-01-10T09:37:31.794Z,100071.30
2018-01-10T09:38:34.258Z,100079.12
2018-01-10T09:39:36.754Z,100077.98
2018-01-10T09:40:39.252Z,100075.24
2018-01-10T09:41:41.742Z,100078.39
2018-01-10T09:42:44.212Z,100080.73
2018-01-10T09:43:46.688Z,100079.77
2018-01-10T09:44:49.160Z,100080.16
2018-01-10T09:45:51.636Z,100070.97
2018-01-10T09:46:54.106Z,100076.45
2018-01-10T09:47:56.584Z,100077.83
2018-01-10T09:48:59.047Z,100078.23
2018-01-10T09:50:01.514Z,100078.23
2018-01-10T09:51:03.997Z,100072.20
2018-01-10T09:52:06.476Z,100078.63
2018-01-10T09:53:08.938Z,100074.11
2018-01-10T09:54:11.402Z,100078.23
2018-01-10T09:55:13.889Z,100072.61
2018-01-10T09:56:16.359Z,100070.83
2018-01-10T09:57:18.836Z,100077.13
2018-01-10T09:58:21.322Z,100074.52
2018-01-10T09:59:23.805Z,100069.03
2018-01-10T10:00:26.293Z,100070.83
2018-01-10T10:01:28.745Z,100072.61
2018-01-10T10:02:31.222Z,100072.61
2018-01-10T10:03:33.687Z,100069.87
2018-01-10T10:04:36.151Z,100073.41
2018-01-10T10:05:38.610Z,100073.58
2018-01-10T10:06:41.080Z,100073.98
2018-01-10T10:07:43.552Z,100076.72
2018-01-10T10:08:46.028Z,100079.87
2018-01-10T10:09:48.538Z,100074.38
2018-01-10T10:10:50.999Z,100076.86
2018-01-10T10:11:53.476Z,100075.75
2018-01-10T10:12:55.981Z,100074.38
2018-01-10T10:13:58.439Z,100081.81
2018-01-10T10:15:00.899Z,100072.20
2018-01-10T10:16:03.362Z,100078.23
2018-01-10T10:17:05.921Z,100069.46
2018-01-10T10:18:08.392Z,100064.67
2018-01-10T10:19:10.872Z,100063.14
2018-01-10T10:20:13.356Z,100071.37
2018-01-10T10:21:15.837Z,100075.89
2018-01-10T10:22:18.316Z,100067.42
2018-01-10T10:23:20.784Z,100068.22
2018-01-10T10:24:23.264Z,100070.16
2018-01-10T10:25:25.735Z,100066.85
2018-01-10T10:26:28.198Z,100065.08
2018-01-10T10:27:31.098Z,100064.27
2018-01-10T10:28:33.580Z,100065.24
2018-01-10T10:29:36.072Z,100061.53
2018-01-10T10:30:38.546Z,100060.72
2018-01-10T10:31:41.020Z,100063.06
2018-01-10T10:32:43.942Z,100059.75
2018-01-10T10:33:46.682Z,100058.95
2018-01-10T10:34:49.160Z,100055.80
2018-01-10T10:35:51.634Z,100056.77
2018-01-10T10:36:54.104Z,100056.77
2018-01-10T10:37:56.584Z,100058.71
2018-01-10T10:38:59.038Z,100058.71
2018-01-10T10:40:01.514Z,100060.48
2018-01-10T10:41:03.982Z,100050.08
2018-01-10T10:42:06.442Z,100050.89
2018-01-10T10:43:08.898Z,100051.45
2018-01-10T10:44:11.362Z,100043.22
2018-01-10T10:45:13.832Z,100045.97
2018-01-10T10:46:16.322Z,100045.56
2018-01-10T10:47:18.778Z,100045.73
2018-01-10T10:48:21.236Z,100044.92
2018-01-10T10:49:23.694Z,100036.69
2018-01-10T10:50:26.177Z,100034.92
2018-01-10T10:51:28.661Z,100039.44
2018-01-10T10:52:31.132Z,100039.03
2018-01-10T10:53:33.606Z,100031.20
2018-01-10T10:54:36.062Z,100031.94
2018-01-10T10:55:38.526Z,100030.41
2018-01-10T10:56:40.998Z,100032.34
2018-01-10T10:57:44.378Z,100027.82
2018-01-10T10:58:46.860Z,100026.45
2018-01-10T10:59:49.326Z,100029.59
2018-01-10T11:00:51.785Z,100028.80
2018-01-10T11:01:54.252Z,100032.34
2018-01-10T11:02:56.737Z,100025.25
2018-01-10T11:03:59.380Z,100025.64
2018-01-10T11:05:01.856Z,100028.80
2018-01-10T11:06:04.322Z,100021.53
2018-01-10T11:07:06.787Z,100023.47
2018-01-10T11:08:09.267Z,100019.76
2018-01-10T11:09:11.744Z,100019.76
2018-01-10T11:10:14.229Z,100024.67
2018-01-10T11:11:16.704Z,100023.30
2018-01-10T11:12:19.184Z,100021.53
2018-01-10T11:13:21.656Z,100019.76
2018-01-10T11:14:24.136Z,100022.09
2018-01-10T11:15:26.593Z,100018.95
2018-01-10T11:16:29.077Z,100016.78
2018-01-10T11:17:31.556Z,100017.75
2018-01-10T11:18:34.044Z,100017.75
2018-01-10T11:19:36.518Z,100009.52
2018-01-10T11:20:38.986Z,100015.41
2018-01-10T11:21:41.469Z,100017.34
2018-01-10T11:22:43.962Z,100011.45
2018-01-10T11:23:46.423Z,100006.53
2018-01-10T11:24:48.908Z,100004.20
2018-01-10T11:25:51.366Z,100012.42
2018-01-10T11:26:53.829Z,100010.81
2018-01-10T11:27:56.294Z,100003.55
2018-01-10T11:28:58.749Z,99996.53
2018-01-10T11:30:01.233Z,100000.81
2018-01-10T11:31:03.704Z,99994.92
2018-01-10T11:32:06.177Z,99999.44
2018-01-10T11:33:08.658Z,99995.73
2018-01-10T11:34:11.131Z,99994.52
2018-01-10T11:35:13.612Z,99997.27
2018-01-10T11:36:16.092Z,99995.09
2018-01-10T11:37:18.558Z,99998.64
2018-01-10T11:38:21.096Z,99992.75
2018-01-10T11:39:23.551Z,99997.03
2018-01-10T11:40:26.033Z,99994.69
2018-01-10T11:41:28.512Z,99993.88
2018-01-10T11:42:30.980Z,99995.25
2018-01-10T11:43:33.439Z,99989.77
2018-01-10T11:44:35.896Z,99989.37
2018-01-10T11:45:38.341Z,99991.70
2018-01-10T11:46:40.798Z,99990.50
2018-01-10T11:47:43.250Z,99988.48
2018-01-10T11:48:45.740Z,99985.48
2018-01-10T11:49:48.222Z,99991.36
2018-01-10T11:50:50.696Z,99980.39
2018-01-10T11:51:53.172Z,99980.66
2018-01-10T11:52:55.635Z,99980.64
2018-01-10T11:53:58.096Z,99978.85